Shtandart — UAEM — position and weather

sailwx.info

Track history (hours):
 
Tides and Currents Weather Stations Pressure Air Temp Water Temp Dewpoint Dewpoint Depression Visibility Wind Speed Wind Dir Waves Ship Positions

Shtandart

Re-creation of early 1700's Russian naval frigate.

Last reported at 2020-Jul-09 02:59 UTC. Time now 2020-Jul-09 05:16 UTC.
Position N 52°26' E 004°50'.

Length 26 m; draft 3 m.

Type: Sailing vessel. MMSI: 273452840.

Date/timePositionNaut miles runAvg speedWind from/ knotsBaromVisibWave heightAir tempDewpointWater temp
2020-Jul-09 02:59N 52°26' E 004°50'0 0.0
2020-Jul-08 21:59N 52°26' E 004°50'0 0.0
2020-Jul-08 20:29N 52°26' E 004°50'0 0.0
2020-Jul-08 17:29N 52°26' E 004°50'0 0.0
2020-Jul-08 16:59N 52°26' E 004°50'0 0.0
2020-Jul-08 13:59N 52°26' E 004°50'0 0.0
2020-Jul-08 13:29N 52°26' E 004°50'0 0.0
2020-Jul-08 12:59N 52°26' E 004°50'0 0.0
2020-Jul-08 12:29N 52°26' E 004°50'0 0.0
2020-Jul-08 10:59N 52°26' E 004°50'0 0.0
2020-Jul-08 05:29N 52°26' E 004°50'0 0.0
2020-Jul-08 02:59N 52°26' E 004°50'0 0.0
2020-Jul-07 22:59N 52°26' E 004°50'0 0.0
2020-Jul-07 21:59N 52°26' E 004°50'0 0.0
2020-Jul-07 20:29N 52°26' E 004°50'0 0.0
2020-Jul-07 18:29N 52°26' E 004°50'0 0.0
2020-Jul-07 15:59N 52°26' E 004°50'0 0.0
2020-Jul-07 14:59N 52°26' E 004°50'0 0.0
2020-Jul-07 13:59N 52°26' E 004°50'0 0.0
2020-Jul-07 12:59N 52°26' E 004°50'0 0.0
2020-Jul-07 11:29N 52°26' E 004°50'0 0.0
2020-Jul-07 10:59N 52°26' E 004°50'3 0.9
2020-Jul-07 07:30N 52°24' E 004°53'0 0.0
2020-Jul-07 05:30N 52°24' E 004°53'0 0.0
2020-Jul-07 05:00N 52°24' E 004°53'0 0.0
2020-Jul-07 03:30N 52°24' E 004°53'0 0.0
2020-Jul-07 03:00N 52°24' E 004°53'0 0.0
2020-Jul-07 00:00N 52°24' E 004°53'0 0.0
2020-Jul-06 22:30N 52°24' E 004°53'0 0.0
2020-Jul-06 19:00N 52°24' E 004°53'0 0.0
2020-Jul-06 18:30N 52°24' E 004°53'0 0.0
2020-Jul-06 17:30N 52°24' E 004°53'0 0.3
2020-Jul-06 17:00N 52°24' E 004°53'20 4.0
2020-Jul-06 12:00N 52°31' E 005°24'2 2.5
2020-Jul-06 11:00N 52°32' E 005°26'3 3.5
2020-Jul-06 10:01N 52°35' E 005°30'2 3.8
2020-Jul-06 09:30N 52°37' E 005°31'5 5.3
2020-Jul-06 08:30N 52°41' E 005°26'2 4.9
2020-Jul-06 08:00N 52°43' E 005°23'3 0.9
2020-Jul-06 04:29N 52°42' E 005°18'0 0.0
2020-Jul-06 02:59N 52°42' E 005°18'0 0.0
2020-Jul-06 01:59N 52°42' E 005°18'0 0.0
2020-Jul-06 01:29N 52°42' E 005°18'0 0.0
2020-Jul-05 21:59N 52°42' E 005°18'0 0.0
2020-Jul-05 19:59N 52°42' E 005°18'0 0.0
2020-Jul-05 15:59N 52°42' E 005°18'0 0.0
2020-Jul-05 15:29N 52°42' E 005°18'0 0.0
2020-Jul-05 12:30N 52°42' E 005°18'8 4.2
2020-Jul-05 10:31N 52°40' E 005°31'9 1.8
2020-Jul-05 05:29N 52°31' E 005°26'0 0.0
2020-Jul-05 03:59N 52°31' E 005°26'0 0.0
2020-Jul-05 02:59N 52°31' E 005°26'0 0.0
2020-Jul-05 01:59N 52°31' E 005°26'0 0.0
2020-Jul-04 22:29N 52°31' E 005°26'0 0.0
2020-Jul-04 19:59N 52°31' E 005°26'0 0.0
2020-Jul-04 19:29N 52°31' E 005°26'0 0.0
2020-Jul-04 18:26N 52°31' E 005°26'6 1.0
2020-Jul-04 12:29N 52°29' E 005°16'5 5.2
2020-Jul-04 11:30N 52°26' E 005°10'11 1.2
2020-Jul-04 02:58N 52°24' E 004°53'0 0.0
2020-Jul-04 01:58N 52°24' E 004°53'0 0.0
2020-Jul-03 21:28N 52°24' E 004°53'0 0.0
2020-Jul-03 20:58N 52°24' E 004°53'0 0.0
2020-Jul-03 17:58N 52°24' E 004°53'0 0.0
2020-Jul-03 16:25N 52°24' E 004°53'0 0.0
2020-Jul-03 15:58N 52°24' E 004°53'0 0.0
2020-Jul-03 15:28N 52°24' E 004°53'0 0.0
2020-Jul-03 14:28N 52°24' E 004°53'0 0.0
2020-Jul-03 13:58N 52°24' E 004°53'0 0.0
2020-Jul-03 13:28N 52°24' E 004°53'0 0.0
2020-Jul-03 10:25N 52°24' E 004°53'0 0.0
2020-Jul-03 09:55N 52°24' E 004°53'0 0.0
2020-Jul-03 09:28N 52°24' E 004°53'0 0.0
2020-Jul-03 08:58N 52°24' E 004°53'0 0.0
2020-Jul-03 08:28N 52°24' E 004°53'0 0.0
2020-Jul-03 06:28N 52°24' E 004°53'0 0.0
2020-Jul-03 03:58N 52°24' E 004°53'0 0.0
2020-Jul-03 02:58N 52°24' E 004°53'0 0.0
2020-Jul-03 02:28N 52°24' E 004°53'0 0.0
2020-Jul-02 20:25N 52°24' E 004°53'0 0.0
2020-Jul-02 19:28N 52°24' E 004°53'0 0.0
2020-Jul-02 18:28N 52°24' E 004°53'0 0.0
2020-Jul-02 15:58N 52°24' E 004°53'0 0.0
2020-Jul-02 14:28N 52°24' E 004°53'0 0.0
2020-Jul-02 11:25N 52°24' E 004°53'0 0.0
2020-Jul-02 10:58N 52°24' E 004°53'0 0.0
2020-Jul-02 10:28N 52°24' E 004°53'0 0.0
2020-Jul-02 09:30N 52°24' E 004°53'0 0.3
2020-Jul-02 09:00N 52°24' E 004°53'5 2.1
2020-Jul-02 06:30N 52°26' E 004°45'10 3.9
2020-Jul-02 04:00N 52°32' E 004°32'3 5.3
2020-Jul-02 03:31N 52°34' E 004°33'5 5.3
2020-Jul-02 02:31N 52°40' E 004°32'4 4.3
2020-Jul-02 01:30N 52°44' E 004°33'  
2020-Jun-29 13:36N 50°58' E 001°52'  
Track history (hours):
 
Tides and Currents Weather Stations Pressure Air Temp Water Temp Dewpoint Dewpoint Depression Visibility Wind Speed Wind Dir Waves Ship Positions

Shtandart

Re-creation of early 1700's Russian naval frigate.

Last reported at 2020-Jul-09 02:59 UTC. Time now 2020-Jul-09 05:16 UTC.
Position N 52°26' E 004°50'.

Length 26 m; draft 3 m.

Type: Sailing vessel. MMSI: 273452840.

Date/timePositionNaut miles runAvg speedWind from/ knotsBaromVisibWave heightAir tempDewpointWater temp
2020-Jul-09 02:59N 52°26' E 004°50'0 0.0
2020-Jul-08 21:59N 52°26' E 004°50'0 0.0
2020-Jul-08 20:29N 52°26' E 004°50'0 0.0
2020-Jul-08 17:29N 52°26' E 004°50'0 0.0
2020-Jul-08 16:59N 52°26' E 004°50'0 0.0
2020-Jul-08 13:59N 52°26' E 004°50'0 0.0
2020-Jul-08 13:29N 52°26' E 004°50'0 0.0
2020-Jul-08 12:59N 52°26' E 004°50'0 0.0
2020-Jul-08 12:29N 52°26' E 004°50'0 0.0
2020-Jul-08 10:59N 52°26' E 004°50'0 0.0
2020-Jul-08 05:29N 52°26' E 004°50'0 0.0
2020-Jul-08 02:59N 52°26' E 004°50'0 0.0
2020-Jul-07 22:59N 52°26' E 004°50'0 0.0
2020-Jul-07 21:59N 52°26' E 004°50'0 0.0
2020-Jul-07 20:29N 52°26' E 004°50'0 0.0
2020-Jul-07 18:29N 52°26' E 004°50'0 0.0
2020-Jul-07 15:59N 52°26' E 004°50'0 0.0
2020-Jul-07 14:59N 52°26' E 004°50'0 0.0
2020-Jul-07 13:59N 52°26' E 004°50'0 0.0
2020-Jul-07 12:59N 52°26' E 004°50'0 0.0
2020-Jul-07 11:29N 52°26' E 004°50'0 0.0
2020-Jul-07 10:59N 52°26' E 004°50'3 0.9
2020-Jul-07 07:30N 52°24' E 004°53'0 0.0
2020-Jul-07 05:30N 52°24' E 004°53'0 0.0
2020-Jul-07 05:00N 52°24' E 004°53'0 0.0
2020-Jul-07 03:30N 52°24' E 004°53'0 0.0
2020-Jul-07 03:00N 52°24' E 004°53'0 0.0
2020-Jul-07 00:00N 52°24' E 004°53'0 0.0
2020-Jul-06 22:30N 52°24' E 004°53'0 0.0
2020-Jul-06 19:00N 52°24' E 004°53'0 0.0
2020-Jul-06 18:30N 52°24' E 004°53'0 0.0
2020-Jul-06 17:30N 52°24' E 004°53'0 0.3
2020-Jul-06 17:00N 52°24' E 004°53'20 4.0
2020-Jul-06 12:00N 52°31' E 005°24'2 2.5
2020-Jul-06 11:00N 52°32' E 005°26'3 3.5
2020-Jul-06 10:01N 52°35' E 005°30'2 3.8
2020-Jul-06 09:30N 52°37' E 005°31'5 5.3
2020-Jul-06 08:30N 52°41' E 005°26'2 4.9
2020-Jul-06 08:00N 52°43' E 005°23'3 0.9
2020-Jul-06 04:29N 52°42' E 005°18'0 0.0
2020-Jul-06 02:59N 52°42' E 005°18'0 0.0
2020-Jul-06 01:59N 52°42' E 005°18'0 0.0
2020-Jul-06 01:29N 52°42' E 005°18'0 0.0
2020-Jul-05 21:59N 52°42' E 005°18'0 0.0
2020-Jul-05 19:59N 52°42' E 005°18'0 0.0
2020-Jul-05 15:59N 52°42' E 005°18'0 0.0
2020-Jul-05 15:29N 52°42' E 005°18'0 0.0
2020-Jul-05 12:30N 52°42' E 005°18'8 4.2
2020-Jul-05 10:31N 52°40' E 005°31'9 1.8
2020-Jul-05 05:29N 52°31' E 005°26'0 0.0
2020-Jul-05 03:59N 52°31' E 005°26'0 0.0
2020-Jul-05 02:59N 52°31' E 005°26'0 0.0
2020-Jul-05 01:59N 52°31' E 005°26'0 0.0
2020-Jul-04 22:29N 52°31' E 005°26'0 0.0
2020-Jul-04 19:59N 52°31' E 005°26'0 0.0
2020-Jul-04 19:29N 52°31' E 005°26'0 0.0
2020-Jul-04 18:26N 52°31' E 005°26'6 1.0
2020-Jul-04 12:29N 52°29' E 005°16'5 5.2
2020-Jul-04 11:30N 52°26' E 005°10'11 1.2
2020-Jul-04 02:58N 52°24' E 004°53'0 0.0
2020-Jul-04 01:58N 52°24' E 004°53'0 0.0
2020-Jul-03 21:28N 52°24' E 004°53'0 0.0
2020-Jul-03 20:58N 52°24' E 004°53'0 0.0
2020-Jul-03 17:58N 52°24' E 004°53'0 0.0
2020-Jul-03 16:25N 52°24' E 004°53'0 0.0
2020-Jul-03 15:58N 52°24' E 004°53'0 0.0
2020-Jul-03 15:28N 52°24' E 004°53'0 0.0
2020-Jul-03 14:28N 52°24' E 004°53'0 0.0
2020-Jul-03 13:58N 52°24' E 004°53'0 0.0
2020-Jul-03 13:28N 52°24' E 004°53'0 0.0
2020-Jul-03 10:25N 52°24' E 004°53'0 0.0
2020-Jul-03 09:55N 52°24' E 004°53'0 0.0
2020-Jul-03 09:28N 52°24' E 004°53'0 0.0
2020-Jul-03 08:58N 52°24' E 004°53'0 0.0
2020-Jul-03 08:28N 52°24' E 004°53'0 0.0
2020-Jul-03 06:28N 52°24' E 004°53'0 0.0
2020-Jul-03 03:58N 52°24' E 004°53'0 0.0
2020-Jul-03 02:58N 52°24' E 004°53'0 0.0
2020-Jul-03 02:28N 52°24' E 004°53'0 0.0
2020-Jul-02 20:25N 52°24' E 004°53'0 0.0
2020-Jul-02 19:28N 52°24' E 004°53'0 0.0
2020-Jul-02 18:28N 52°24' E 004°53'0 0.0
2020-Jul-02 15:58N 52°24' E 004°53'0 0.0
2020-Jul-02 14:28N 52°24' E 004°53'0 0.0
2020-Jul-02 11:25N 52°24' E 004°53'0 0.0
2020-Jul-02 10:58N 52°24' E 004°53'0 0.0
2020-Jul-02 10:28N 52°24' E 004°53'0 0.0
2020-Jul-02 09:30N 52°24' E 004°53'0 0.3
2020-Jul-02 09:00N 52°24' E 004°53'5 2.1
2020-Jul-02 06:30N 52°26' E 004°45'10 3.9
2020-Jul-02 04:00N 52°32' E 004°32'3 5.3
2020-Jul-02 03:31N 52°34' E 004°33'5 5.3
2020-Jul-02 02:31N 52°40' E 004°32'4 4.3
2020-Jul-02 01:30N 52°44' E 004°33'  
2020-Jun-29 13:36N 50°58' E 001°52'  

Dump ship's entire track history